Big Spring, Kentucky
Current Conditions -  °F | °C
As of 2:08 AM on Saturday 01 Nov 2014 (Local Time) from KFTK Reporting Station
Overcast Overcast  
Wind Chill: 24°   Ceiling: 2100
Heat Index: 34°   Visibility: 10mi
Dew Point: 32°   Wind: 16mph
Humidity: 93%   Direction: 320°NW
Pressure: 30.09"   Gusts: 25mph
Location:  37.8°N, 86.15°W
Report Text: KFTK 010608Z AUTO 32014G22KT 10SM SCT014 OVC021 01/00 A3009 RMK AO2 CIG 013V021
Loading
Personal Weather Stations






























Interactive Weather Map
Tropical Storm Tracking
New forecast layout! Learn more

10-Day Weather Forecast

Advertisements
Track Severe Weather on mobile